Time;durP1;ratioP1;P1;durP2;ratioP2;P2;SDS_P1;SDS_P2;PMS_P1;PMS_P2;Temp;Humidity;BMP_temperature;BMP_pressure;BME280_temperature;BME280_humidity;BME280_pressure;Samples;Min_cycle;Max_cycle;Signal;HPM_P1;HPM_P2
2023/10/18 00:00:04;;;;;;;8.53;4.20;;;;;;;5.26;100.00;96004.84;5036348;28;20236;-68
2023/10/18 00:02:32;;;;;;;8.10;4.60;;;;;;;5.36;100.00;96008.22;5036291;28;20216;-68
2023/10/18 00:04:59;;;;;;;11.70;3.90;;;;;;;5.12;100.00;96013.22;5037167;28;20204;-68
2023/10/18 00:07:27;;;;;;;8.73;4.03;;;;;;;5.09;100.00;96008.31;5036643;28;20709;-67
2023/10/18 00:09:55;;;;;;;7.03;3.73;;;;;;;5.15;100.00;96005.06;5036188;28;20734;-67
2023/10/18 00:12:22;;;;;;;9.87;4.87;;;;;;;5.01;100.00;95999.56;5036568;28;20205;-68
2023/10/18 00:14:52;;;;;;;8.10;4.87;;;;;;;5.09;100.00;95992.63;5036819;28;20243;-68
2023/10/18 00:17:18;;;;;;;6.97;3.90;;;;;;;5.07;100.00;95993.75;5036604;28;20213;-68
2023/10/18 00:19:46;;;;;;;11.93;4.83;;;;;;;5.10;100.00;95996.88;5036080;28;20565;-68
2023/10/18 00:22:13;;;;;;;10.03;4.80;;;;;;;4.90;100.00;95986.72;5036504;28;20222;-67
2023/10/18 00:24:40;;;;;;;9.43;4.60;;;;;;;4.80;100.00;95986.00;5037160;28;20221;-68
2023/10/18 00:27:09;;;;;;;11.80;4.53;;;;;;;4.79;100.00;95981.72;5036508;28;20240;-68
2023/10/18 00:29:35;;;;;;;10.67;4.97;;;;;;;4.73;100.00;95978.91;5036119;28;20209;-68
2023/10/18 00:32:03;;;;;;;7.23;4.23;;;;;;;4.58;100.00;95978.59;5036580;28;20204;-68
2023/10/18 00:34:30;;;;;;;7.30;4.47;;;;;;;4.62;100.00;95976.47;5036370;28;20456;-68
2023/10/18 00:36:58;;;;;;;10.90;5.17;;;;;;;4.79;100.00;95970.47;5036194;28;20765;-68
2023/10/18 00:39:28;;;;;;;8.73;4.80;;;;;;;4.70;100.00;95963.50;5035784;28;20208;-68
2023/10/18 00:41:58;;;;;;;8.13;4.37;;;;;;;4.80;100.00;95961.66;5036649;28;21119;-68
2023/10/18 00:44:25;;;;;;;8.43;4.17;;;;;;;4.87;100.00;95961.75;5035967;28;20222;-68
2023/10/18 00:46:52;;;;;;;8.87;5.27;;;;;;;4.92;100.00;95962.09;5035553;28;20708;-67
2023/10/18 00:49:20;;;;;;;7.93;4.17;;;;;;;5.09;100.00;95960.47;5035867;28;20197;-67
2023/10/18 00:51:48;;;;;;;9.30;4.83;;;;;;;5.25;100.00;95961.41;5035253;28;20650;-68
2023/10/18 00:54:19;;;;;;;11.83;5.10;;;;;;;5.45;100.00;95955.06;5036249;28;20608;-68
2023/10/18 00:56:45;;;;;;;11.77;5.37;;;;;;;5.44;100.00;95956.81;5036325;28;20215;-67
2023/10/18 00:59:18;;;;;;;9.23;4.87;;;;;;;5.39;100.00;95953.03;5035911;28;20212;-68
2023/10/18 01:01:46;;;;;;;10.20;4.87;;;;;;;5.58;100.00;95950.22;5035269;28;20216;-68
2023/10/18 01:04:13;;;;;;;10.37;5.10;;;;;;;5.50;100.00;95945.78;5036897;28;21420;-68
2023/10/18 01:06:49;;;;;;;10.40;5.27;;;;;;;5.70;100.00;95946.38;5036034;28;20232;-68
2023/10/18 01:09:17;;;;;;;10.33;5.17;;;;;;;5.75;100.00;95950.19;5035205;28;20309;-68
2023/10/18 01:11:46;;;;;;;12.63;5.60;;;;;;;5.65;100.00;95946.00;5035708;28;20201;-68
2023/10/18 01:14:17;;;;;;;9.40;5.10;;;;;;;5.62;100.00;95939.31;5035262;28;20225;-68
2023/10/18 01:16:44;;;;;;;11.07;5.40;;;;;;;5.71;100.00;95940.19;5035725;28;20258;-68
2023/10/18 01:19:14;;;;;;;10.90;5.30;;;;;;;5.80;100.00;95931.44;5035492;28;20209;-68
2023/10/18 01:21:45;;;;;;;12.93;5.83;;;;;;;5.72;100.00;95939.22;5036024;28;20212;-68
2023/10/18 01:24:14;;;;;;;12.53;6.37;;;;;;;5.85;100.00;95939.63;5035556;28;20279;-68
2023/10/18 01:26:43;;;;;;;12.20;5.37;;;;;;;5.75;100.00;95933.66;5035085;28;20212;-67
2023/10/18 01:29:10;;;;;;;9.90;4.90;;;;;;;5.75;100.00;95931.88;5035159;28;20209;-68
2023/10/18 01:31:37;;;;;;;11.50;5.80;;;;;;;5.69;100.00;95929.03;5035012;28;20205;-68
2023/10/18 01:34:04;;;;;;;14.73;5.90;;;;;;;5.49;100.00;95925.03;5035754;28;20314;-68
2023/10/18 01:36:31;;;;;;;13.97;5.90;;;;;;;5.38;100.00;95920.03;5035765;28;20229;-68
2023/10/18 01:38:59;;;;;;;10.13;5.27;;;;;;;5.42;100.00;95910.91;5035092;28;20917;-68
2023/10/18 01:41:29;;;;;;;12.27;5.80;;;;;;;5.63;100.00;95898.31;5035710;28;20315;-68
2023/10/18 01:44:05;;;;;;;10.93;6.30;;;;;;;5.85;100.00;95892.56;5035989;28;20221;-68
2023/10/18 01:46:33;;;;;;;15.13;5.87;;;;;;;5.61;100.00;95887.19;5034960;28;20201;-68
2023/10/18 01:49:00;;;;;;;11.23;5.57;;;;;;;5.80;100.00;95889.63;5035141;28;20689;-67
2023/10/18 01:51:27;;;;;;;12.77;6.03;;;;;;;5.87;100.00;95888.84;5035692;28;20208;-67
2023/10/18 01:53:55;;;;;;;18.67;6.93;;;;;;;5.97;100.00;95886.09;5034584;28;20217;-68
2023/10/18 01:56:22;;;;;;;15.20;6.70;;;;;;;5.85;100.00;95887.34;5035285;28;20627;-68
2023/10/18 01:58:48;;;;;;;14.53;5.80;;;;;;;5.71;100.00;95885.28;5035557;28;20197;-68
2023/10/18 02:01:17;;;;;;;11.47;5.87;;;;;;;5.89;100.00;95883.44;5034894;28;20955;-68
2023/10/18 02:03:44;;;;;;;13.70;6.10;;;;;;;5.87;100.00;95886.22;5033831;28;20217;-67
2023/10/18 02:06:14;;;;;;;15.50;6.07;;;;;;;5.94;100.00;95881.19;5040634;28;20205;-68
2023/10/18 02:08:41;;;;;;;14.80;6.80;;;;;;;5.96;100.00;95884.44;5038996;28;20267;-68
2023/10/18 02:11:09;;;;;;;13.43;6.67;;;;;;;5.86;100.00;95878.53;5039063;28;20651;-68
2023/10/18 02:13:36;;;;;;;17.23;7.00;;;;;;;5.93;100.00;95876.91;5038842;28;20225;-67
2023/10/18 02:16:06;;;;;;;15.20;6.33;;;;;;;6.03;100.00;95880.22;5039738;28;20457;-68
2023/10/18 02:18:34;;;;;;;14.90;6.17;;;;;;;6.08;100.00;95878.75;5038352;28;20296;-68
2023/10/18 02:21:02;;;;;;;12.50;6.00;;;;;;;5.98;100.00;95877.25;5038614;28;20209;-68
2023/10/18 02:23:34;;;;;;;14.73;6.43;;;;;;;6.01;100.00;95872.53;5039041;28;20224;-67
2023/10/18 02:26:01;;;;;;;12.93;5.73;;;;;;;6.04;100.00;95875.66;5038943;28;20201;-67
2023/10/18 02:28:28;;;;;;;15.33;6.03;;;;;;;6.11;100.00;95873.25;5038521;28;20205;-68
2023/10/18 02:30:57;;;;;;;13.77;6.53;;;;;;;6.16;100.00;95877.00;5038436;28;20212;-68
2023/10/18 02:33:33;;;;;;;18.97;7.10;;;;;;;6.21;100.00;95879.97;5038167;28;20229;-68
2023/10/18 02:36:05;;;;;;;11.27;6.03;;;;;;;6.13;100.00;95868.66;5038439;28;20590;-68
2023/10/18 02:38:32;;;;;;;15.17;6.77;;;;;;;5.87;100.00;95872.31;5038918;28;20585;-68
2023/10/18 02:41:01;;;;;;;13.17;6.13;;;;;;;5.77;100.00;95874.25;5038089;28;20205;-68
2023/10/18 02:43:29;;;;;;;13.20;6.50;;;;;;;5.71;100.00;95874.84;5037945;28;20221;-68
2023/10/18 02:45:56;;;;;;;13.53;6.13;;;;;;;5.74;100.00;95869.28;5037959;28;20288;-68
2023/10/18 02:48:25;;;;;;;14.13;6.73;;;;;;;5.53;100.00;95866.25;5038051;28;20204;-67
2023/10/18 02:50:54;;;;;;;14.57;6.30;;;;;;;5.57;100.00;95863.16;5037677;28;20288;-68
2023/10/18 02:53:22;;;;;;;14.80;6.17;;;;;;;5.74;100.00;95869.28;5038277;28;20217;-68
2023/10/18 02:55:55;;;;;;;17.57;7.30;;;;;;;5.96;100.00;95871.34;5038121;28;20251;-68
2023/10/18 02:58:27;;;;;;;12.17;6.27;;;;;;;5.93;100.00;95871.69;5038327;28;20296;-68
2023/10/18 03:00:55;;;;;;;15.00;6.90;;;;;;;5.83;100.00;95869.22;5035380;28;20640;-68
2023/10/18 03:03:22;;;;;;;14.47;6.10;;;;;;;5.87;100.00;95865.31;5037613;28;20745;-67
2023/10/18 03:05:51;;;;;;;15.37;7.20;;;;;;;5.87;100.00;95859.22;5037747;28;20292;-68
2023/10/18 03:08:20;;;;;;;14.47;5.70;;;;;;;5.77;100.00;95854.13;5037135;28;20219;-67
2023/10/18 03:10:51;;;;;;;13.10;5.80;;;;;;;5.86;100.00;95862.84;5037432;28;20286;-68
2023/10/18 03:13:18;;;;;;;14.60;6.13;;;;;;;5.71;100.00;95859.16;5038227;28;20845;-67
2023/10/18 03:15:55;;;;;;;12.70;6.17;;;;;;;5.87;100.00;95861.84;5036791;28;21390;-68
2023/10/18 03:18:25;;;;;;;15.53;6.23;;;;;;;5.94;100.00;95863.69;5037872;28;20287;-67
2023/10/18 03:20:56;;;;;;;17.63;7.20;;;;;;;6.03;100.00;95864.53;5038355;28;20316;-68
2023/10/18 03:23:26;;;;;;;12.37;6.43;;;;;;;5.95;100.00;95869.75;5037161;28;20224;-68
2023/10/18 03:26:01;;;;;;;18.50;7.67;;;;;;;5.98;100.00;95861.56;5037353;28;20216;-68
2023/10/18 03:28:34;;;;;;;12.90;5.97;;;;;;;5.82;100.00;95869.38;5037879;28;20201;-67
2023/10/18 03:31:04;;;;;;;17.23;6.63;;;;;;;5.86;100.00;95862.84;5037748;28;20205;-67
2023/10/18 03:33:32;;;;;;;21.33;7.60;;;;;;;5.74;100.00;95853.59;5037671;28;20240;-68
2023/10/18 03:36:06;;;;;;;13.17;5.80;;;;;;;5.71;100.00;95848.69;5037748;28;20225;-68
2023/10/18 03:38:39;;;;;;;16.37;6.97;;;;;;;5.78;100.00;95841.88;5036847;28;20220;-68
2023/10/18 03:41:10;;;;;;;18.17;7.40;;;;;;;5.97;100.00;95852.94;5036837;28;21119;-68
2023/10/18 03:43:37;;;;;;;12.00;6.30;;;;;;;5.91;100.00;95845.69;5037206;28;20979;-68
2023/10/18 03:46:13;;;;;;;15.67;7.17;;;;;;;5.66;100.00;95840.50;5037237;28;20198;-68
2023/10/18 03:48:39;;;;;;;16.60;7.43;;;;;;;5.52;100.00;95843.69;5037171;28;20204;-68
2023/10/18 03:51:06;;;;;;;14.80;7.47;;;;;;;5.45;100.00;95847.94;5036922;28;20799;-68
2023/10/18 03:53:33;;;;;;;14.10;6.73;;;;;;;5.67;100.00;95842.16;5037183;28;20235;-67
2023/10/18 03:56:01;;;;;;;19.67;7.90;;;;;;;5.59;100.00;95844.72;5036968;28;20707;-68
2023/10/18 03:58:29;;;;;;;13.07;6.47;;;;;;;5.81;100.00;95844.19;5037030;28;20575;-67
2023/10/18 04:00:56;;;;;;;15.53;7.57;;;;;;;5.58;100.00;95832.63;5036314;28;20198;-68
2023/10/18 04:03:27;;;;;;;16.70;7.07;;;;;;;5.39;100.00;95835.47;5036444;28;20714;-68
2023/10/18 04:05:55;;;;;;;15.17;7.33;;;;;;;5.61;100.00;95829.69;5037024;28;20244;-68
2023/10/18 04:08:22;;;;;;;14.23;6.77;;;;;;;5.66;100.00;95823.00;5036979;28;20804;-68
2023/10/18 04:10:58;;;;;;;17.00;7.20;;;;;;;5.65;100.00;95825.78;5037032;28;20212;-68
2023/10/18 04:13:25;;;;;;;15.63;6.53;;;;;;;5.60;100.00;95821.03;5036253;28;20225;-68
2023/10/18 04:15:59;;;;;;;15.37;6.90;;;;;;;5.61;100.00;95822.69;5037369;28;20221;-68
2023/10/18 04:18:29;;;;;;;12.07;5.53;;;;;;;5.66;100.00;95822.19;5036114;28;20235;-67
2023/10/18 04:20:59;;;;;;;13.83;6.73;;;;;;;5.51;100.00;95816.75;5036836;28;20201;-67
2023/10/18 04:23:27;;;;;;;15.47;6.97;;;;;;;5.39;100.00;95811.16;5036532;28;20225;-68
2023/10/18 04:25:58;;;;;;;19.30;7.77;;;;;;;5.57;100.00;95810.09;5036414;28;20287;-68
2023/10/18 04:28:25;;;;;;;22.60;8.43;;;;;;;5.58;100.00;95814.34;5035158;28;20207;-68
2023/10/18 04:30:59;;;;;;;20.10;7.93;;;;;;;5.72;100.00;95808.50;5037101;28;20216;-67
2023/10/18 04:33:28;;;;;;;18.67;8.20;;;;;;;5.62;100.00;95805.22;5036135;28;20239;-68
2023/10/18 04:35:55;;;;;;;20.10;7.90;;;;;;;5.56;100.00;95797.97;5036636;28;20229;-68
2023/10/18 04:38:23;;;;;;;18.67;7.83;;;;;;;5.64;100.00;95795.44;5035824;28;21190;-68
2023/10/18 04:40:53;;;;;;;15.97;7.40;;;;;;;5.77;100.00;95790.59;5036260;28;20208;-68
2023/10/18 04:43:22;;;;;;;16.37;7.13;;;;;;;5.65;100.00;95781.34;5035526;28;20236;-68
2023/10/18 04:45:56;;;;;;;22.03;7.33;;;;;;;5.82;100.00;95788.34;5036561;28;20198;-68
2023/10/18 04:48:46;;;;;;;18.10;6.90;;;;;;;5.76;100.00;95778.50;5035774;28;20216;-68
2023/10/18 04:51:09;;;;;;;16.80;7.00;;;;;;;5.77;100.00;95774.91;5036086;28;20634;-68
2023/10/18 04:53:38;;;;;;;16.27;7.67;;;;;;;5.68;100.00;95776.63;5036185;28;20222;-68
2023/10/18 04:56:05;;;;;;;19.10;8.97;;;;;;;5.75;100.00;95766.38;5036460;28;20229;-68
2023/10/18 04:58:31;;;;;;;16.90;7.73;;;;;;;5.60;100.00;95767.94;5035790;28;20197;-68
2023/10/18 05:01:01;;;;;;;16.60;7.40;;;;;;;5.68;100.00;95768.00;5036110;28;20230;-68
2023/10/18 05:03:30;;;;;;;16.27;7.67;;;;;;;5.46;100.00;95769.38;5035775;28;20241;-67
2023/10/18 05:05:57;;;;;;;15.70;7.60;;;;;;;5.30;100.00;95762.47;5035655;28;20201;-68
2023/10/18 05:08:23;;;;;;;17.13;7.13;;;;;;;5.43;100.00;95758.41;5035914;28;20205;-68
2023/10/18 05:10:52;;;;;;;16.63;7.70;;;;;;;5.54;100.00;95752.91;5035505;28;20237;-67
2023/10/18 05:13:32;;;;;;;17.93;8.60;;;;;;;5.53;100.00;95740.81;5034718;28;20282;-68
2023/10/18 05:16:01;;;;;;;18.30;8.10;;;;;;;5.78;100.00;95738.16;5035558;28;20228;-68
2023/10/18 05:18:30;;;;;;;17.63;7.53;;;;;;;5.61;100.00;95751.28;5035935;28;20205;-68
2023/10/18 05:20:57;;;;;;;16.97;7.93;;;;;;;5.77;100.00;95754.81;5035373;28;20228;-69
2023/10/18 05:23:25;;;;;;;14.57;7.67;;;;;;;5.86;100.00;95750.44;5035090;28;20948;-68
2023/10/18 05:25:58;;;;;;;20.50;8.60;;;;;;;5.68;100.00;95765.38;5035810;28;20197;-68
2023/10/18 05:28:28;;;;;;;20.27;9.07;;;;;;;5.54;100.00;95768.59;5035428;28;21452;-68
2023/10/18 05:31:20;;;;;;;18.73;7.80;;;;;;;5.60;100.00;95758.31;5034872;28;20197;-68
2023/10/18 05:33:54;;;;;;;14.50;6.97;;;;;;;5.82;100.00;95762.19;5036220;28;20229;-68
2023/10/18 05:36:42;;;;;;;16.77;8.17;;;;;;;5.62;100.00;95772.03;5035302;28;20977;-68
2023/10/18 05:39:27;;;;;;;22.13;8.40;;;;;;;5.49;100.00;95781.31;5036790;28;20212;-68
2023/10/18 05:41:59;;;;;;;16.20;7.77;;;;;;;5.58;100.00;95777.75;5040690;28;20240;-68
2023/10/18 05:44:27;;;;;;;15.50;7.50;;;;;;;5.56;100.00;95777.91;5038933;28;20220;-69
2023/10/18 05:46:54;;;;;;;20.27;8.17;;;;;;;5.56;100.00;95777.06;5039068;28;20314;-69
2023/10/18 05:49:24;;;;;;;16.80;7.93;;;;;;;5.67;100.00;95774.19;5039527;28;20212;-68
2023/10/18 05:51:55;;;;;;;15.67;7.53;;;;;;;5.37;100.00;95779.94;5040133;28;20211;-68
2023/10/18 05:54:22;;;;;;;19.00;8.23;;;;;;;5.53;100.00;95786.03;5038944;28;20610;-69
2023/10/18 05:56:51;;;;;;;20.87;7.00;;;;;;;5.63;100.00;95784.13;5038081;28;20224;-68
2023/10/18 05:59:27;;;;;;;21.03;8.47;;;;;;;5.63;100.00;95780.72;5038887;28;20673;-69
2023/10/18 06:01:57;;;;;;;18.47;7.50;;;;;;;5.40;100.00;95774.41;5039078;28;20209;-70
2023/10/18 06:04:26;;;;;;;23.73;7.80;;;;;;;5.27;100.00;95767.97;5038860;28;20234;-68
2023/10/18 06:06:57;;;;;;;21.53;9.53;;;;;;;5.11;100.00;95773.94;5038938;28;20240;-70
2023/10/18 06:09:27;;;;;;;20.43;9.17;;;;;;;5.19;100.00;95781.00;5038890;28;20240;-70
2023/10/18 06:11:55;;;;;;;21.07;9.13;;;;;;;5.10;100.00;95769.69;5039104;28;20208;-70
2023/10/18 06:14:25;;;;;;;16.90;7.03;;;;;;;5.01;100.00;95764.59;5039029;28;20267;-68
2023/10/18 06:16:52;;;;;;;17.57;8.20;;;;;;;5.27;100.00;95753.13;5039135;28;20595;-70
2023/10/18 06:19:25;;;;;;;19.20;8.50;;;;;;;5.26;100.00;95750.69;5038411;28;20266;-70
2023/10/18 06:21:57;;;;;;;20.17;7.97;;;;;;;5.50;100.00;95757.63;5039607;28;20208;-70
2023/10/18 06:24:25;;;;;;;17.83;7.97;;;;;;;5.53;100.00;95764.34;5038562;28;20233;-70
2023/10/18 06:26:52;;;;;;;17.93;7.77;;;;;;;5.48;100.00;95761.38;5038667;28;21076;-70
2023/10/18 06:29:23;;;;;;;21.97;7.87;;;;;;;5.30;100.00;95758.03;5038392;28;20201;-71
2023/10/18 06:31:50;;;;;;;15.83;7.30;;;;;;;5.29;100.00;95758.19;5038550;28;20241;-70
2023/10/18 06:34:18;;;;;;;18.83;7.77;;;;;;;5.49;100.00;95752.56;5038307;28;20225;-68
2023/10/18 06:36:44;;;;;;;16.93;7.53;;;;;;;5.29;100.00;95747.75;5038380;28;20228;-71
2023/10/18 06:39:24;;;;;;;20.77;9.40;;;;;;;5.27;100.00;95755.75;5038681;28;20209;-70
2023/10/18 06:41:53;;;;;;;15.07;7.27;;;;;;;5.14;100.00;95760.59;5038612;28;20216;-70
2023/10/18 06:44:19;;;;;;;19.20;7.57;;;;;;;5.35;100.00;95763.63;5038476;28;20651;-70
2023/10/18 06:46:47;;;;;;;19.33;7.67;;;;;;;5.17;100.00;95755.03;5038162;28;20200;-71
2023/10/18 06:49:14;;;;;;;19.30;7.23;;;;;;;5.03;100.00;95758.22;5038095;28;20205;-70
2023/10/18 06:51:43;;;;;;;23.43;9.07;;;;;;;4.99;100.00;95761.28;5038056;28;20607;-70
2023/10/18 06:54:13;;;;;;;18.53;8.10;;;;;;;5.21;100.00;95766.81;5038653;28;20290;-70
2023/10/18 06:56:45;;;;;;;21.43;9.30;;;;;;;5.51;100.00;95758.44;5037923;28;20217;-70
2023/10/18 06:59:11;;;;;;;17.87;7.97;;;;;;;4.98;100.00;95752.66;5038422;28;20250;-71
2023/10/18 07:01:42;;;;;;;18.97;8.40;;;;;;;4.91;100.00;95754.25;5038501;28;20257;-71
2023/10/18 07:04:16;;;;;;;18.77;8.37;;;;;;;5.07;100.00;95753.53;5037971;28;20243;-70
2023/10/18 07:06:44;;;;;;;15.73;8.27;;;;;;;4.99;100.00;95743.84;5036992;28;20198;-71
2023/10/18 07:09:24;;;;;;;20.87;8.07;;;;;;;5.29;100.00;95737.31;5038081;28;20711;-71
2023/10/18 07:11:53;;;;;;;21.07;9.07;;;;;;;5.49;100.00;95729.06;5038158;28;20259;-70
2023/10/18 07:14:20;;;;;;;17.90;7.50;;;;;;;5.04;100.00;95733.78;5037713;28;20282;-70
2023/10/18 07:16:48;;;;;;;19.20;8.67;;;;;;;5.22;100.00;95737.13;5037930;28;20270;-71
2023/10/18 07:19:26;;;;;;;23.50;9.17;;;;;;;5.52;100.00;95744.41;5037195;28;20208;-71
2023/10/18 07:21:53;;;;;;;17.43;7.40;;;;;;;5.65;100.00;95747.38;5037352;28;20209;-71
2023/10/18 07:24:20;;;;;;;18.77;8.27;;;;;;;5.50;100.00;95746.38;5037017;28;20229;-70
2023/10/18 07:26:48;;;;;;;25.83;8.53;;;;;;;5.64;100.00;95733.50;5037462;28;20828;-70
2023/10/18 07:29:15;;;;;;;17.70;7.63;;;;;;;5.38;100.00;95725.91;5036706;28;20679;-70
2023/10/18 07:31:44;;;;;;;20.40;8.33;;;;;;;5.28;100.00;95731.25;5036719;28;20597;-71
2023/10/18 07:34:17;;;;;;;19.00;8.30;;;;;;;5.30;100.00;95733.72;5036958;28;20231;-68
2023/10/18 07:36:45;;;;;;;15.40;7.20;;;;;;;5.12;100.00;95740.81;5036528;28;20495;-70
2023/10/18 07:39:12;;;;;;;16.20;7.10;;;;;;;5.14;100.00;95744.09;5037018;28;20209;-70
2023/10/18 07:41:40;;;;;;;16.63;7.60;;;;;;;5.06;100.00;95736.22;5037442;28;20197;-70
2023/10/18 07:44:07;;;;;;;18.70;9.07;;;;;;;5.05;100.00;95730.19;5036850;28;20217;-70
2023/10/18 07:46:39;;;;;;;18.20;8.43;;;;;;;5.45;100.00;95743.41;5037118;28;20212;-70
2023/10/18 07:49:11;;;;;;;17.13;7.70;;;;;;;5.44;100.00;95739.16;5036538;28;20208;-71
2023/10/18 07:51:43;;;;;;;20.50;9.13;;;;;;;5.71;100.00;95733.69;5036556;28;20205;-70
2023/10/18 07:54:14;;;;;;;17.97;7.83;;;;;;;5.79;100.00;95725.88;5036749;28;20719;-70
2023/10/18 07:56:48;;;;;;;21.93;8.00;;;;;;;5.47;100.00;95718.78;5036575;28;20339;-71
2023/10/18 07:59:30;;;;;;;17.83;8.27;;;;;;;5.53;100.00;95725.94;5035479;28;20213;-70
2023/10/18 08:02:09;;;;;;;20.23;8.27;;;;;;;5.73;100.00;95726.50;5036754;28;20204;-70
2023/10/18 08:04:36;;;;;;;20.43;8.27;;;;;;;5.55;100.00;95715.38;5036683;28;20240;-70
2023/10/18 08:07:03;;;;;;;21.47;8.30;;;;;;;5.50;100.00;95725.47;5035962;28;20247;-69
2023/10/18 08:09:30;;;;;;;20.77;7.87;;;;;;;5.55;100.00;95726.63;5035441;28;20587;-69
2023/10/18 08:11:56;;;;;;;26.13;8.97;;;;;;;5.64;100.00;95732.69;5037430;28;20205;-69
2023/10/18 08:14:26;;;;;;;18.67;8.33;;;;;;;5.72;100.00;95723.06;5035557;28;20225;-70
2023/10/18 08:16:55;;;;;;;14.40;7.03;;;;;;;5.41;100.00;95715.97;5035829;28;20386;-70
2023/10/18 08:19:25;;;;;;;17.77;7.97;;;;;;;5.64;100.00;95717.03;5035400;28;20205;-71
2023/10/18 08:22:03;;;;;;;22.70;7.97;;;;;;;5.66;100.00;95700.19;5036255;28;20334;-70
2023/10/18 08:24:34;;;;;;;20.00;7.50;;;;;;;5.86;100.00;95698.16;5034923;28;20228;-71
2023/10/18 08:27:09;;;;;;;18.10;8.50;;;;;;;5.84;100.00;95703.53;5036074;28;20638;-70
2023/10/18 08:29:36;;;;;;;23.13;7.97;;;;;;;6.06;100.00;95702.91;5035563;28;20707;-70
2023/10/18 08:32:08;;;;;;;19.87;8.67;;;;;;;6.17;100.00;95690.31;5035929;28;20743;-70
2023/10/18 08:34:36;;;;;;;20.23;9.17;;;;;;;6.51;100.00;95698.78;5036055;28;20710;-70
2023/10/18 08:37:03;;;;;;;22.00;8.80;;;;;;;6.23;100.00;95700.09;5035820;28;20713;-70
2023/10/18 08:39:30;;;;;;;23.33;9.00;;;;;;;6.26;100.00;95702.41;5035000;28;20483;-70
2023/10/18 08:42:08;;;;;;;26.57;9.10;;;;;;;6.33;100.00;95679.03;5036069;28;20619;-70
2023/10/18 08:44:35;;;;;;;19.93;8.73;;;;;;;6.30;100.00;95687.19;5035421;28;20323;-70
2023/10/18 08:47:12;;;;;;;16.50;7.73;;;;;;;6.33;100.00;95685.06;5035403;28;20233;-70
2023/10/18 08:49:51;;;;;;;21.40;9.27;;;;;;;6.68;100.00;95666.34;5035500;28;20209;-70
2023/10/18 08:52:21;;;;;;;18.90;8.37;;;;;;;6.64;100.00;95661.63;5035907;28;20624;-70
2023/10/18 08:54:49;;;;;;;21.10;7.93;;;;;;;6.56;100.00;95667.69;5035509;28;20589;-71
2023/10/18 08:57:24;;;;;;;17.77;7.07;;;;;;;6.37;100.00;95668.06;5036241;28;20233;-70
2023/10/18 08:59:51;;;;;;;19.57;8.57;;;;;;;6.75;100.00;95664.72;5032218;28;20292;-69
2023/10/18 09:02:18;;;;;;;18.53;7.80;;;;;;;6.58;100.00;95673.59;5035297;28;20213;-70
2023/10/18 09:04:48;;;;;;;20.60;8.37;;;;;;;6.91;100.00;95665.50;5033739;28;20279;-70
2023/10/18 09:07:22;;;;;;;24.23;7.90;;;;;;;6.97;100.00;95658.75;5034587;28;20576;-70
2023/10/18 09:09:55;;;;;;;18.03;7.27;;;;;;;6.66;100.00;95657.88;5034847;28;20250;-70
2023/10/18 09:12:36;;;;;;;21.27;8.03;;;;;;;6.63;100.00;95655.56;5034050;28;20209;-69
2023/10/18 09:15:27;;;;;;;26.10;8.57;;;;;;;6.65;100.00;95643.94;5035506;28;20197;-69
2023/10/18 09:17:54;;;;;;;19.07;7.80;;;;;;;6.57;100.00;95640.56;5034571;28;20244;-69
2023/10/18 09:20:26;;;;;;;19.20;7.27;;;;;;;6.67;100.00;95633.34;5034286;28;20220;-69
2023/10/18 09:22:52;;;;;;;22.33;8.70;;;;;;;6.59;100.00;95640.38;5035136;28;20225;-69
2023/10/18 09:25:23;;;;;;;19.93;7.50;;;;;;;6.79;100.00;95634.59;5034254;28;20201;-69
2023/10/18 09:27:51;;;;;;;18.17;8.07;;;;;;;6.78;100.00;95646.88;5033935;28;20288;-69
2023/10/18 09:30:19;;;;;;;19.77;8.40;;;;;;;7.00;100.00;95656.63;5034560;28;20207;-69
2023/10/18 09:32:46;;;;;;;26.23;8.43;;;;;;;7.26;100.00;95655.34;5033784;28;20209;-70
2023/10/18 09:35:13;;;;;;;19.77;9.07;;;;;;;7.45;100.00;95648.88;5034966;28;20205;-70
2023/10/18 09:37:41;;;;;;;19.93;7.83;;;;;;;7.67;100.00;95648.91;5034183;28;20225;-69
2023/10/18 09:40:11;;;;;;;23.70;9.07;;;;;;;7.61;100.00;95654.84;5035041;28;20204;-69
2023/10/18 09:42:38;;;;;;;21.93;9.37;;;;;;;7.54;100.00;95658.34;5033817;28;20209;-69
2023/10/18 09:45:08;;;;;;;19.57;8.63;;;;;;;7.68;100.00;95652.34;5034825;28;20197;-69
2023/10/18 09:47:36;;;;;;;22.27;8.10;;;;;;;7.58;100.00;95660.44;5034010;28;20311;-70
2023/10/18 09:50:06;;;;;;;18.60;8.10;;;;;;;7.19;100.00;95653.56;5034538;28;20205;-69
2023/10/18 09:52:47;;;;;;;17.43;8.13;;;;;;;7.47;100.00;95642.50;5034547;28;21000;-69
2023/10/18 09:55:20;;;;;;;19.40;9.40;;;;;;;7.42;100.00;95647.44;5035156;28;20258;-69
2023/10/18 09:57:59;;;;;;;25.23;9.17;;;;;;;7.54;100.00;95637.38;5033944;28;20711;-69
2023/10/18 10:00:29;;;;;;;18.07;7.57;;;;;;;7.69;100.00;95625.97;5034298;28;20201;-69
2023/10/18 10:02:58;;;;;;;18.30;8.17;;;;;;;7.65;100.00;95624.69;5034481;28;20236;-69
2023/10/18 10:05:25;;;;;;;16.00;7.17;;;;;;;7.66;100.00;95615.00;5034238;28;20667;-70
2023/10/18 10:07:55;;;;;;;18.00;8.00;;;;;;;7.92;100.00;95611.84;5033496;28;20210;-69
2023/10/18 10:10:42;;;;;;;21.03;8.97;;;;;;;7.55;100.00;95608.34;5034061;28;20205;-69
2023/10/18 10:13:12;;;;;;;22.43;9.17;;;;;;;7.69;100.00;95604.97;5033813;28;20229;-70
2023/10/18 10:15:40;;;;;;;18.77;7.67;;;;;;;7.56;100.00;95604.75;5033949;28;20310;-70
2023/10/18 10:18:13;;;;;;;22.37;8.33;;;;;;;8.00;100.00;95598.66;5033758;28;21152;-69
2023/10/18 10:20:42;;;;;;;21.23;8.07;;;;;;;7.97;100.00;95616.56;5034240;28;20201;-70
2023/10/18 10:23:15;;;;;;;24.83;7.80;;;;;;;8.18;100.00;95611.50;5034004;28;20252;-70
2023/10/18 10:26:00;;;;;;;22.87;8.63;;;;;;;8.38;100.00;95586.38;5035734;28;20205;-69
2023/10/18 10:31:55;;;;;;;20.50;8.47;;;;;;;8.48;100.00;95576.41;5092645;27;20945;-69
2023/10/18 10:34:26;;;;;;;21.70;9.23;;;;;;;8.49;100.00;95579.69;5093877;28;20239;-69
2023/10/18 10:36:54;;;;;;;18.10;8.83;;;;;;;8.44;100.00;95588.28;5094244;28;20199;-69
2023/10/18 10:39:30;;;;;;;25.17;10.47;;;;;;;8.46;100.00;95583.69;5092837;28;20203;-69
2023/10/18 10:42:00;;;;;;;20.53;9.07;;;;;;;8.23;100.00;95567.16;5092701;28;20263;-70
2023/10/18 10:44:30;;;;;;;23.20;9.43;;;;;;;8.26;100.00;95569.44;5094159;28;20235;-69
2023/10/18 10:47:29;;;;;;;18.03;8.20;;;;;;;8.63;100.00;95570.16;5092888;28;20198;-70
2023/10/18 10:49:59;;;;;;;24.80;8.83;;;;;;;8.45;100.00;95571.53;5092381;28;20716;-69
2023/10/18 10:52:29;;;;;;;22.50;10.00;;;;;;;8.55;100.00;95568.47;5092482;28;20207;-69
2023/10/18 10:55:01;;;;;;;21.00;8.93;;;;;;;8.40;100.00;95571.25;5093281;28;20279;-69
2023/10/18 10:57:30;;;;;;;19.77;8.37;;;;;;;8.59;100.00;95555.78;5093971;28;20577;-69
2023/10/18 10:59:58;;;;;;;19.87;8.77;;;;;;;8.71;100.00;95543.84;5093304;28;20202;-70
2023/10/18 11:02:39;;;;;;;19.70;7.63;;;;;;;9.00;100.00;95535.91;5093476;28;20415;-69
2023/10/18 11:05:15;;;;;;;20.80;9.03;;;;;;;8.82;100.00;95538.94;5093564;28;20301;-69
2023/10/18 11:07:44;;;;;;;16.47;6.77;;;;;;;8.75;100.00;95539.84;5093588;28;20901;-69
2023/10/18 11:10:16;;;;;;;22.33;9.47;;;;;;;8.63;100.00;95538.66;5091761;28;20590;-69
2023/10/18 11:12:45;;;;;;;20.13;9.80;;;;;;;8.66;100.00;95526.00;5092760;28;20663;-70
2023/10/18 11:15:16;;;;;;;20.73;9.23;;;;;;;8.57;100.00;95513.94;5091749;28;20207;-69
2023/10/18 11:17:45;;;;;;;21.27;8.63;;;;;;;8.85;100.00;95504.41;5092032;28;20203;-68
2023/10/18 11:20:19;;;;;;;17.00;8.37;;;;;;;8.72;100.00;95500.84;5091787;28;20240;-68
2023/10/18 11:22:47;;;;;;;18.03;7.70;;;;;;;8.94;100.00;95484.91;5092074;28;20198;-69
2023/10/18 11:25:19;;;;;;;19.30;8.33;;;;;;;8.78;100.00;95487.78;5091795;28;20286;-69
2023/10/18 11:27:46;;;;;;;21.33;8.90;;;;;;;9.02;100.00;95492.69;5093155;28;20532;-69
2023/10/18 11:30:16;;;;;;;20.60;9.60;;;;;;;9.51;100.00;95483.06;5092771;28;20215;-69
2023/10/18 11:32:48;;;;;;;23.47;8.27;;;;;;;9.52;100.00;95477.66;5092994;28;20823;-69
2023/10/18 11:35:19;;;;;;;16.40;8.10;;;;;;;9.67;100.00;95477.56;5092522;28;20204;-69
2023/10/18 11:37:47;;;;;;;20.00;9.20;;;;;;;9.70;100.00;95484.06;5092802;28;20203;-69
2023/10/18 11:40:18;;;;;;;21.53;7.53;;;;;;;9.69;100.00;95466.66;5091306;28;20572;-69
2023/10/18 11:42:55;;;;;;;31.47;8.60;;;;;;;9.48;100.00;95468.50;5079067;28;20219;-68